createdAt,value
2022-09-05T00:01:28.689Z,62.23
2022-09-05T00:04:39.824Z,65.77
2022-09-05T00:07:59.999Z,67.77
2022-09-05T00:11:43.062Z,67.43
2022-09-05T00:15:16.522Z,64.13
2022-09-05T00:20:04.356Z,66.53
2022-09-05T00:24:19.237Z,67.07
2022-09-05T00:24:35.812Z,64.70
2022-09-05T00:27:19.750Z,67.07
2022-09-05T00:30:47.321Z,68.23
2022-09-05T00:33:27.332Z,68.23
2022-09-05T00:36:17.743Z,64.77
2022-09-05T00:39:00.721Z,66.53
2022-09-05T00:41:32.890Z,66.30
2022-09-05T00:44:07.051Z,68.57
2022-09-05T00:46:44.694Z,69.00
2022-09-05T00:49:59.969Z,65.20
2022-09-05T00:52:42.359Z,66.72
2022-09-05T00:55:25.749Z,66.43
2022-09-05T00:58:03.403Z,65.70
2022-09-05T01:00:48.510Z,65.80
2022-09-05T01:03:42.309Z,63.40
2022-09-05T01:06:37.399Z,65.63
2022-09-05T01:09:14.227Z,65.53
2022-09-05T01:12:10.376Z,63.70
2022-09-05T01:14:56.863Z,64.93
2022-09-05T01:17:50.090Z,64.17
2022-09-05T01:21:00.226Z,63.50
2022-09-05T01:24:39.679Z,66.63
2022-09-05T01:28:35.708Z,61.37
2022-09-05T01:30:39.963Z,66.30
2022-09-05T01:33:18.089Z,64.90
2022-09-05T01:36:04.350Z,63.63
2022-09-05T01:38:48.334Z,70.03
2022-09-05T01:41:53.793Z,67.50
2022-09-05T01:44:43.564Z,65.13
2022-09-05T01:47:44.288Z,64.03
2022-09-05T01:50:20.688Z,62.60
2022-09-05T01:53:10.774Z,62.10
2022-09-05T01:56:06.012Z,64.30
2022-09-05T01:58:55.802Z,64.83
2022-09-05T02:01:33.201Z,64.67
2022-09-05T02:04:19.931Z,62.67
2022-09-05T02:07:19.408Z,62.30
2022-09-05T02:10:24.840Z,62.27
2022-09-05T02:13:11.495Z,66.60
2022-09-05T02:15:59.355Z,62.27
2022-09-05T02:18:54.895Z,64.73
2022-09-05T02:21:55.481Z,64.93
2022-09-05T02:24:41.317Z,65.00
2022-09-05T02:28:04.360Z,64.68
2022-09-05T02:30:36.966Z,64.40
2022-09-05T02:33:29.222Z,61.77
2022-09-05T02:36:14.988Z,61.67
2022-09-05T02:45:00.381Z,64.03
2022-09-05T02:45:07.590Z,62.67
2022-09-05T02:45:34.967Z,63.83
2022-09-05T02:48:46.410Z,62.07
2022-09-05T02:56:34.694Z,62.33
2022-09-05T02:57:39.222Z,60.27
2022-09-05T02:58:06.201Z,56.67
2022-09-05T03:00:48.457Z,61.53
2022-09-05T03:03:28.825Z,62.20
2022-09-05T03:06:26.045Z,60.20
2022-09-05T03:09:35.909Z,59.67
2022-09-05T03:12:29.105Z,59.57
2022-09-05T03:15:22.899Z,59.47
2022-09-05T03:18:30.429Z,60.47
2022-09-05T03:21:21.015Z,61.73
2022-09-05T03:24:04.742Z,59.60
2022-09-05T03:27:05.887Z,61.87
2022-09-05T03:29:40.341Z,63.17
2022-09-05T03:35:10.876Z,64.63
2022-09-05T03:38:20.563Z,60.53
2022-09-05T03:41:14.199Z,65.23
2022-09-05T03:44:08.782Z,62.43
2022-09-05T03:47:24.585Z,70.55
2022-09-05T03:57:08.458Z,64.45
2022-09-05T03:57:13.435Z,66.72
2022-09-05T03:57:20.511Z,70.10
2022-09-05T04:00:06.612Z,68.73
2022-09-05T04:08:11.093Z,68.93
2022-09-05T04:08:18.782Z,68.63
2022-09-05T04:08:57.094Z,67.97
2022-09-05T04:11:52.698Z,71.57
2022-09-05T04:14:33.313Z,71.17
2022-09-05T04:17:31.473Z,74.72
2022-09-05T04:20:39.806Z,71.17
2022-09-05T04:23:19.078Z,73.57
2022-09-05T04:26:13.960Z,73.33
2022-09-05T04:29:04.143Z,73.70
2022-09-05T04:32:03.937Z,72.53
2022-09-05T04:34:51.178Z,71.23
2022-09-05T04:37:55.195Z,70.77
2022-09-05T04:40:32.959Z,74.77
2022-09-05T04:43:41.965Z,69.53
2022-09-05T04:46:19.190Z,70.93
2022-09-05T04:49:03.065Z,73.63
2022-09-05T04:52:00.312Z,74.73
2022-09-05T04:54:35.341Z,70.70
2022-09-05T04:57:35.820Z,70.93
2022-09-05T05:06:00.769Z,71.57
2022-09-05T05:06:05.346Z,71.27
2022-09-05T05:06:45.057Z,76.30
2022-09-05T05:09:30.736Z,67.97
2022-09-05T05:17:55.393Z,74.53
2022-09-05T05:18:48.837Z,71.77
2022-09-05T05:21:29.461Z,68.83
2022-09-05T05:24:13.185Z,73.53
2022-09-05T05:26:56.911Z,71.37
2022-09-05T05:29:58.525Z,75.43
2022-09-05T05:32:52.513Z,75.07
2022-09-05T05:35:31.713Z,73.77
2022-09-05T05:38:45.074Z,80.37
2022-09-05T05:41:32.493Z,76.93
2022-09-05T05:44:14.468Z,78.93
2022-09-05T05:46:55.589Z,79.40
2022-09-05T05:49:50.425Z,81.37
2022-09-05T05:53:00.852Z,84.25
2022-09-05T05:55:52.670Z,82.97
2022-09-05T05:58:52.220Z,84.30
2022-09-05T06:02:04.365Z,86.50
2022-09-05T06:05:13.601Z,88.53
2022-09-05T06:10:14.401Z,79.73
2022-09-05T06:14:58.422Z,82.80
2022-09-05T06:15:02.504Z,76.57
2022-09-05T06:17:28.163Z,80.63
2022-09-05T06:22:05.370Z,83.00
2022-09-05T06:23:32.257Z,91.93
2022-09-05T06:26:23.248Z,87.27
2022-09-05T06:29:22.585Z,82.73
2022-09-05T06:32:31.205Z,89.83
2022-09-05T06:35:17.778Z,92.63
2022-09-05T06:38:21.229Z,93.40
2022-09-05T06:41:15.965Z,96.03
2022-09-05T06:44:12.736Z,98.63
2022-09-05T06:46:55.288Z,99.50
2022-09-05T06:50:26.941Z,97.77
2022-09-05T06:53:08.199Z,109.57
2022-09-05T06:56:07.457Z,109.93
2022-09-05T06:59:09.727Z,109.67
2022-09-05T07:02:00.513Z,114.53
2022-09-05T07:05:23.505Z,108.13
2022-09-05T07:07:52.958Z,123.05
2022-09-05T07:10:38.994Z,109.37
2022-09-05T07:13:25.231Z,114.97
2022-09-05T07:16:10.810Z,110.80
2022-09-05T07:19:27.665Z,114.67
2022-09-05T07:22:47.344Z,114.30
2022-09-05T07:25:20.282Z,114.00
2022-09-05T07:28:29.968Z,112.77
2022-09-05T07:31:03.056Z,121.60
2022-09-05T07:33:39.330Z,112.83
2022-09-05T07:36:17.192Z,113.90
2022-09-05T07:39:02.267Z,117.80
2022-09-05T07:41:45.245Z,118.00
2022-09-05T07:44:29.669Z,117.77
2022-09-05T07:50:40.151Z,125.27
2022-09-05T07:56:55.221Z,108.53
2022-09-05T07:57:15.920Z,116.83
2022-09-05T07:58:41.864Z,108.13
2022-09-05T08:01:14.845Z,110.57
2022-09-05T08:03:54.593Z,110.37
2022-09-05T08:06:50.738Z,108.90
2022-09-05T08:10:06.261Z,115.23
2022-09-05T08:12:57.693Z,119.30
2022-09-05T08:16:10.763Z,114.27
2022-09-05T08:18:36.648Z,117.07
2022-09-05T08:21:13.514Z,113.67
2022-09-05T08:23:48.156Z,114.67
2022-09-05T08:26:46.907Z,111.90
2022-09-05T08:29:38.275Z,121.70
2022-09-05T08:32:35.241Z,120.07
2022-09-05T08:35:15.907Z,122.20
2022-09-05T08:37:50.239Z,119.87
2022-09-05T08:40:30.997Z,118.10
2022-09-05T08:46:23.474Z,113.43
2022-09-05T08:46:42.601Z,118.63
2022-09-05T08:49:38.589Z,117.43
2022-09-05T08:52:33.897Z,113.40
2022-09-05T08:55:14.573Z,115.20
2022-09-05T08:58:04.473Z,114.00
2022-09-05T09:00:55.085Z,108.43
2022-09-05T09:03:53.661Z,110.03
2022-09-05T09:07:47.722Z,116.43
2022-09-05T09:10:11.713Z,130.47
2022-09-05T09:13:19.887Z,125.13
2022-09-05T09:16:14.398Z,116.33
2022-09-05T09:18:48.732Z,114.30
2022-09-05T09:21:25.365Z,109.47
2022-09-05T09:24:27.759Z,108.80
2022-09-05T09:27:09.139Z,108.23
2022-09-05T09:29:42.833Z,109.27
2022-09-05T09:32:17.350Z,105.78
2022-09-05T09:35:23.433Z,102.73
2022-09-05T09:38:15.895Z,109.37
2022-09-05T09:41:12.214Z,102.23
2022-09-05T09:44:06.803Z,108.97
2022-09-05T09:46:43.671Z,112.70
2022-09-05T09:49:32.920Z,106.23
2022-09-05T09:52:41.804Z,106.77
2022-09-05T09:55:41.072Z,107.00
2022-09-05T09:58:31.449Z,102.67
2022-09-05T10:01:35.555Z,105.37
2022-09-05T10:08:40.732Z,110.63
2022-09-05T10:10:47.955Z,109.73
2022-09-05T10:11:18.795Z,106.90
2022-09-05T10:13:38.414Z,104.40
2022-09-05T10:16:25.053Z,105.33
2022-09-05T10:20:06.070Z,105.43
2022-09-05T10:22:50.214Z,103.97
2022-09-05T10:25:51.309Z,100.20
2022-09-05T10:28:22.846Z,105.07
2022-09-05T10:31:30.217Z,105.37
2022-09-05T10:35:16.835Z,102.00
2022-09-05T10:37:05.392Z,104.33
2022-09-05T10:39:41.672Z,96.23
2022-09-05T10:42:17.903Z,96.43
2022-09-05T10:44:58.301Z,100.60
2022-09-05T10:47:47.896Z,96.37
2022-09-05T10:50:32.292Z,98.87
2022-09-05T10:53:10.482Z,97.75
2022-09-05T10:55:59.825Z,97.60
2022-09-05T11:00:05.670Z,99.03
2022-09-05T11:02:22.383Z,100.37
2022-09-05T11:07:45.783Z,98.47
2022-09-05T11:10:45.052Z,96.27
2022-09-05T11:13:47.554Z,101.37
2022-09-05T11:16:22.145Z,101.63
2022-09-05T11:19:03.873Z,104.10
2022-09-05T11:21:50.496Z,101.10
2022-09-05T11:24:42.040Z,103.30
2022-09-05T11:27:24.708Z,99.40
2022-09-05T11:30:28.709Z,97.82
2022-09-05T11:37:43.063Z,106.80
2022-09-05T11:40:07.347Z,106.40
2022-09-05T11:40:30.054Z,100.97
2022-09-05T11:43:23.035Z,110.83
2022-09-05T11:46:29.479Z,106.17
2022-09-05T11:49:43.337Z,108.33
2022-09-05T11:52:40.738Z,108.50
2022-09-05T11:55:47.109Z,107.07
2022-09-05T11:58:45.460Z,106.13
2022-09-05T12:01:45.338Z,103.67
2022-09-05T12:05:48.447Z,106.33
2022-09-05T12:08:01.820Z,106.33
2022-09-05T12:11:06.970Z,102.83
2022-09-05T12:14:25.474Z,101.00
2022-09-05T12:20:17.162Z,99.63
2022-09-05T12:23:06.473Z,100.77
2022-09-05T12:27:38.516Z,103.03
2022-09-05T12:29:28.143Z,95.30
2022-09-05T12:34:39.890Z,101.13
2022-09-05T12:36:06.371Z,95.53
2022-09-05T12:40:54.622Z,96.15
2022-09-05T12:41:41.218Z,99.40
2022-09-05T12:41:44.764Z,93.47
2022-09-05T12:44:45.397Z,96.47
2022-09-05T12:47:21.199Z,96.57
2022-09-05T12:50:14.449Z,90.67
2022-09-05T12:52:51.816Z,91.87
2022-09-05T12:56:12.164Z,94.87
2022-09-05T13:02:55.152Z,99.80
2022-09-05T13:03:13.876Z,90.93
2022-09-05T13:05:01.089Z,93.77
2022-09-05T13:07:41.001Z,94.50
2022-09-05T13:12:35.760Z,92.67
2022-09-05T13:15:00.997Z,94.90
2022-09-05T13:16:46.184Z,94.17
2022-09-05T13:19:33.234Z,97.83
2022-09-05T13:22:06.220Z,93.43
2022-09-05T13:24:41.593Z,97.40
2022-09-05T13:27:33.357Z,89.63
2022-09-05T13:31:28.591Z,95.07
2022-09-05T13:38:07.593Z,91.27
2022-09-05T13:38:42.045Z,94.53
2022-09-05T13:39:12.153Z,94.47
2022-09-05T13:41:51.165Z,94.13
2022-09-05T13:44:27.975Z,92.40
2022-09-05T13:47:28.798Z,94.07
2022-09-05T13:50:07.545Z,93.03
2022-09-05T13:52:44.452Z,93.27
2022-09-05T13:55:44.111Z,96.40
2022-09-05T13:58:39.885Z,91.73
2022-09-05T14:01:26.769Z,93.37
2022-09-05T14:07:53.442Z,98.27
2022-09-05T14:10:57.555Z,96.67
2022-09-05T14:14:09.299Z,94.23
2022-09-05T14:16:53.514Z,93.63
2022-09-05T14:19:45.813Z,95.30
2022-09-05T14:22:45.741Z,94.27
2022-09-05T14:25:26.700Z,92.07
2022-09-05T14:28:01.080Z,96.77
2022-09-05T14:32:04.384Z,95.10
2022-09-05T14:37:39.711Z,92.93
2022-09-05T14:37:43.765Z,91.90
2022-09-05T14:40:02.170Z,90.57
2022-09-05T14:43:13.984Z,92.43
2022-09-05T14:46:07.528Z,93.27
2022-09-05T14:48:53.726Z,91.67
2022-09-05T14:51:39.204Z,84.57
2022-09-05T15:02:45.488Z,92.43
2022-09-05T15:02:54.384Z,88.67
2022-09-05T15:06:32.887Z,93.20
2022-09-05T15:12:17.409Z,91.07
2022-09-05T15:12:20.656Z,85.85
2022-09-05T15:15:15.577Z,88.27
2022-09-05T15:17:50.267Z,94.73
2022-09-05T15:20:32.623Z,87.67
2022-09-05T15:23:16.061Z,93.17
2022-09-05T15:28:43.273Z,94.70
2022-09-05T15:31:24.789Z,91.07
2022-09-05T15:33:56.768Z,90.63
2022-09-05T15:36:35.518Z,91.80
2022-09-05T15:39:24.904Z,87.47
2022-09-05T15:42:11.288Z,90.03
2022-09-05T15:45:06.336Z,87.77
2022-09-05T15:47:35.308Z,92.00
2022-09-05T15:50:19.014Z,91.80
2022-09-05T15:52:55.872Z,91.90
2022-09-05T15:55:27.767Z,88.70
2022-09-05T15:58:07.519Z,88.53
2022-09-05T16:00:51.657Z,91.10
2022-09-05T16:09:16.622Z,92.88
2022-09-05T16:10:30.117Z,88.93
2022-09-05T16:10:57.393Z,95.07
2022-09-05T16:12:44.794Z,91.87
2022-09-05T16:17:35.026Z,91.28
2022-09-05T16:23:15.453Z,93.87
2022-09-05T16:23:21.115Z,89.03
2022-09-05T16:24:24.946Z,92.57
2022-09-05T16:27:18.562Z,93.20
2022-09-05T16:29:51.713Z,89.40
2022-09-05T16:32:29.104Z,91.00
2022-09-05T16:35:08.615Z,91.07
2022-09-05T16:37:52.408Z,93.87
2022-09-05T16:40:27.095Z,89.15
2022-09-05T16:43:09.030Z,92.13
2022-09-05T16:45:52.545Z,89.17
2022-09-05T16:48:45.539Z,96.20
2022-09-05T16:51:24.673Z,92.43
2022-09-05T16:54:10.957Z,91.13
2022-09-05T16:56:47.586Z,90.50
2022-09-05T16:59:28.415Z,91.63
2022-09-05T17:02:08.030Z,88.00
2022-09-05T17:05:05.983Z,91.37
2022-09-05T17:07:46.537Z,88.00
2022-09-05T17:10:25.728Z,86.93
2022-09-05T17:12:57.625Z,89.03
2022-09-05T17:15:35.438Z,92.50
2022-09-05T17:18:24.263Z,91.93
2022-09-05T17:21:01.484Z,87.03
2022-09-05T17:29:16.124Z,87.83
2022-09-05T17:29:32.523Z,90.60
2022-09-05T17:32:38.673Z,88.97
2022-09-05T17:35:33.761Z,88.80
2022-09-05T17:38:25.855Z,90.33
2022-09-05T17:41:14.132Z,88.97
2022-09-05T17:43:57.923Z,88.10
2022-09-05T17:46:34.425Z,86.15
2022-09-05T17:49:18.204Z,87.73
2022-09-05T17:51:55.808Z,90.03
2022-09-05T17:54:31.750Z,84.40
2022-09-05T17:57:28.050Z,88.53
2022-09-05T18:00:43.642Z,87.10
2022-09-05T18:03:45.895Z,88.30
2022-09-05T18:06:20.491Z,89.17
2022-09-05T18:08:52.949Z,85.40
2022-09-05T18:11:27.926Z,84.63
2022-09-05T18:14:10.617Z,87.57
2022-09-05T18:17:36.502Z,85.97
2022-09-05T18:19:57.921Z,78.67
2022-09-05T18:22:36.899Z,78.20
2022-09-05T18:25:28.261Z,83.30
2022-09-05T18:28:28.961Z,79.73
2022-09-05T18:31:40.838Z,81.50
2022-09-05T18:34:19.632Z,84.17
2022-09-05T18:36:56.990Z,79.07
2022-09-05T18:39:37.594Z,81.83
2022-09-05T18:42:26.043Z,77.30
2022-09-05T18:45:15.345Z,79.75
2022-09-05T18:47:58.885Z,81.70
2022-09-05T18:53:34.781Z,83.13
2022-09-05T18:56:21.106Z,79.38
2022-09-05T18:59:24.169Z,78.00
2022-09-05T19:02:01.061Z,81.27
2022-09-05T19:04:42.431Z,80.17
2022-09-05T19:07:48.286Z,81.22
2022-09-05T19:10:36.013Z,78.93
2022-09-05T19:13:15.060Z,79.47
2022-09-05T19:16:21.176Z,77.37
2022-09-05T19:19:17.332Z,78.00
2022-09-05T19:22:45.164Z,77.83
2022-09-05T19:24:51.349Z,80.67
2022-09-05T19:33:03.396Z,77.40
2022-09-05T19:36:58.158Z,78.97
2022-09-05T19:37:05.923Z,76.80
2022-09-05T19:37:14.799Z,81.13
2022-09-05T19:42:54.191Z,76.17
2022-09-05T19:47:37.945Z,78.83
2022-09-05T19:47:43.861Z,78.27
2022-09-05T19:48:26.761Z,79.73
2022-09-05T19:51:16.275Z,79.40
2022-09-05T19:54:04.215Z,80.80
2022-09-05T19:56:38.997Z,77.57
2022-09-05T19:59:24.878Z,79.40
2022-09-05T20:01:57.081Z,75.03
2022-09-05T20:04:53.082Z,76.70
2022-09-05T20:07:27.959Z,79.67
2022-09-05T20:10:02.954Z,81.23
2022-09-05T20:12:43.547Z,78.60
2022-09-05T20:15:17.968Z,74.50
2022-09-05T20:17:54.026Z,75.27
2022-09-05T20:20:31.255Z,77.80
2022-09-05T20:23:07.382Z,72.50
2022-09-05T20:25:41.958Z,78.47
2022-09-05T20:28:20.851Z,74.37
2022-09-05T20:30:55.608Z,75.23
2022-09-05T20:33:38.896Z,74.80
2022-09-05T20:42:15.686Z,75.77
2022-09-05T20:43:18.924Z,74.43
2022-09-05T20:43:23.017Z,72.67
2022-09-05T20:45:01.277Z,72.67
2022-09-05T20:51:33.272Z,74.23
2022-09-05T20:54:18.416Z,70.27
2022-09-05T20:54:20.153Z,71.60
2022-09-05T20:56:33.257Z,72.27
2022-09-05T20:59:12.505Z,74.60
2022-09-05T21:01:55.073Z,78.40
2022-09-05T21:04:32.862Z,71.60
2022-09-05T21:07:13.230Z,72.73
2022-09-05T21:09:55.205Z,79.20
2022-09-05T21:12:34.608Z,74.07
2022-09-05T21:15:24.300Z,72.30
2022-09-05T21:18:16.246Z,72.20
2022-09-05T21:20:53.962Z,77.03
2022-09-05T21:23:36.896Z,73.53
2022-09-05T21:26:25.246Z,70.93
2022-09-05T21:29:04.108Z,71.47
2022-09-05T21:31:45.680Z,75.60
2022-09-05T21:34:38.371Z,69.07
2022-09-05T21:37:18.081Z,69.83
2022-09-05T21:39:59.540Z,69.10
2022-09-05T21:44:10.514Z,67.90
2022-09-05T21:47:44.678Z,67.20
2022-09-05T21:48:16.148Z,67.07
2022-09-05T21:50:51.387Z,65.27
2022-09-05T21:57:16.863Z,66.53
2022-09-05T21:59:20.182Z,65.83
2022-09-05T21:59:38.841Z,66.63
2022-09-05T22:02:18.108Z,64.97
2022-09-05T22:04:56.869Z,66.53
2022-09-05T22:07:35.584Z,66.20
2022-09-05T22:10:08.530Z,68.00
2022-09-05T22:12:40.451Z,65.90
2022-09-05T22:15:27.794Z,68.67
2022-09-05T22:18:16.723Z,66.67
2022-09-05T22:21:32.775Z,64.60
2022-09-05T22:23:48.616Z,61.83
2022-09-05T22:26:21.216Z,64.10
2022-09-05T22:28:52.837Z,65.17
2022-09-05T22:31:24.506Z,62.53
2022-09-05T22:33:58.946Z,62.40
2022-09-05T22:39:03.896Z,65.63
2022-09-05T22:41:38.737Z,65.33
2022-09-05T22:44:10.305Z,64.13
2022-09-05T22:46:41.966Z,66.67
2022-09-05T22:49:13.570Z,63.70
2022-09-05T22:51:45.168Z,64.20
2022-09-05T22:54:16.738Z,67.93
2022-09-05T22:56:51.055Z,64.77
2022-09-05T22:59:22.677Z,62.70
2022-09-05T23:01:54.477Z,61.83
2022-09-05T23:04:26.510Z,64.87
2022-09-05T23:07:02.665Z,62.03
2022-09-05T23:09:35.266Z,66.27
2022-09-05T23:12:07.077Z,63.80
2022-09-05T23:14:38.662Z,62.97
2022-09-05T23:17:13.222Z,63.23
2022-09-05T23:19:44.801Z,65.47
2022-09-05T23:22:16.688Z,65.43
2022-09-05T23:24:48.292Z,64.37
2022-09-05T23:27:19.949Z,64.30
2022-09-05T23:29:51.557Z,61.80
2022-09-05T23:32:23.141Z,61.77
2022-09-05T23:34:54.852Z,67.50
2022-09-05T23:37:26.510Z,64.37
2022-09-05T23:39:58.237Z,64.33
2022-09-05T23:42:29.997Z,63.20
2022-09-05T23:45:01.612Z,63.13
2022-09-05T23:47:35.616Z,64.77
2022-09-05T23:50:07.500Z,60.88
2022-09-05T23:52:40.048Z,64.70
2022-09-05T23:55:14.319Z,65.33
2022-09-05T23:57:46.695Z,61.85
